EDT,Max TemperatureF,Mean TemperatureF,Min TemperatureF,Max Dew PointF,MeanDew PointF,Min DewpointF,Max Humidity, Mean Humidity, Min Humidity, Max Sea Level PressureIn, Mean Sea Level PressureIn, Min Sea Level PressureIn, Max VisibilityMiles, Mean VisibilityMiles, Min VisibilityMiles, Max Wind SpeedMPH, Mean Wind SpeedMPH, Max Gust SpeedMPH,PrecipitationIn, CloudCover, Events, WindDirDegrees
2011-10-1,55,50,45,45,42,39,93,76,59,29.87,29.83,29.76,10,8,4,18,10,25,0.69,8,Rain,290
2011-10-2,50,47,43,43,39,37,92,77,61,29.97,29.89,29.84,10,10,8,20,10,25,0.16,8,Rain,297
2011-10-3,53,48,43,48,44,40,93,85,77,30.11,30.04,29.94,10,9,3,9,2,14,0.21,8,Rain,171
2011-10-4,64,55,45,52,49,44,100,82,63,30.19,30.14,30.09,10,7,0,16,6,21,0.00,6,Fog,305
2011-10-5,75,63,50,52,49,45,89,65,41,30.29,30.22,30.17,10,10,10,15,5,23,0.00,0,,302
2011-10-6,69,58,46,51,44,39,93,68,42,30.42,30.37,30.31,10,10,10,10,2,59,0.00,1,,27
2011-10-7,74,58,42,54,47,39,96,69,41,30.49,30.43,30.37,10,8,2,6,0,9,0.00,1,,50
2011-10-8,75,61,46,54,49,45,93,69,44,30.55,30.49,30.45,10,8,2,7,0,9,0.00,0,,140
2011-10-9,77,61,44,56,48,43,93,67,41,30.51,30.46,30.37,10,4,0,5,0,7,0.00,2,Fog,220
2011-10-10,74,61,47,62,52,46,100,79,57,30.36,30.31,30.20,10,4,0,5,0,6,0.00,2,Fog,40
2011-10-11,69,61,52,61,55,52,93,80,66,30.20,30.16,30.08,10,4,0,8,0,10,0.01,5,Fog-Rain,95
2011-10-12,63,60,57,61,57,54,97,89,80,30.08,29.94,29.85,10,5,1,12,6,16,0.77,8,Rain,25
2011-10-13,65,61,57,63,59,55,100,95,90,29.85,29.68,29.53,10,3,1,8,4,14,0.40,8,Rain-Thunderstorm,18
2011-10-14,69,61,52,60,54,39,100,70,40,29.68,29.51,29.46,10,5,0,33,9,41,0.27,5,Fog-Rain,222
2011-10-15,67,58,48,43,36,30,77,53,28,29.91,29.75,29.69,10,10,10,32,13,46,0.00,0,,234
2011-10-16,71,61,50,46,40,33,56,45,33,30.00,29.86,29.66,10,10,10,20,9,26,0.00,1,,203
2011-10-17,72,61,50,49,37,28,64,42,20,29.88,29.81,29.68,10,10,10,28,10,39,T,2,Rain,270
2011-10-18,73,59,44,50,43,35,82,56,29,29.89,29.82,29.75,10,10,10,12,2,16,0.00,1,,123
2011-10-19,65,61,56,61,57,50,93,81,69,29.73,29.48,29.26,10,6,2,20,5,23,0.29,8,Rain,27
2011-10-20,59,53,47,57,43,34,86,66,46,29.80,29.48,29.27,10,10,4,23,9,30,0.02,6,Rain,225
2011-10-21,53,50,46,41,38,36,71,63,54,30.13,30.00,29.82,10,10,10,22,9,28,0.00,8,,254
2011-10-22,61,51,41,43,40,37,89,66,42,30.16,30.12,30.08,10,10,6,9,2,22,0.00,5,,240
2011-10-23,64,49,34,45,39,32,96,70,43,30.18,30.13,30.08,10,7,2,9,0,12,0.00,0,,210
2011-10-24,64,54,44,51,45,42,92,76,60,30.11,30.06,30.00,10,9,6,17,2,24,0.02,5,Rain,204
2011-10-25,68,57,45,43,39,34,86,57,27,30.21,30.13,30.04,10,10,9,15,4,18,0.00,0,,259
2011-10-26,66,57,48,55,48,40,93,75,57,30.03,29.88,29.76,10,10,6,17,3,24,0.06,3,Rain,190
2011-10-27,63,52,41,58,49,31,93,77,60,30.07,29.76,29.59,10,9,5,23,6,30,0.08,7,Rain,351
2011-10-28,49,42,34,36,31,27,92,67,42,30.26,30.20,30.10,10,9,7,13,4,16,0.13,4,Rain,34
2011-10-29,39,36,33,36,33,30,96,86,76,30.17,30.05,29.99,10,4,0,15,8,20,1.11,8,Fog-Rain-Snow,351
2011-10-30,50,39,28,33,30,26,92,71,49,30.36,30.28,30.12,10,10,6,9,1,10,0.00,0,,350
2011-10-31,53,41,29,36,31,26,100,72,44,30.36,30.31,30.25,10,9,4,15,3,22,0.00,2,,166